sensor_id;sensor_type;location;lat;lon;timestamp;pressure;altitude;pressure_sealevel;temperature;humidity
29433;BME280;16405;53.964;13.448;2023-04-27T00:02:17;101270.31;;;1.17;85.18
29433;BME280;16405;53.964;13.448;2023-04-27T00:04:43;101265.09;;;1.14;85.24
29433;BME280;16405;53.964;13.448;2023-04-27T00:07:09;101270.31;;;1.11;85.42
29433;BME280;16405;53.964;13.448;2023-04-27T00:09:34;101270.28;;;1.08;85.33
29433;BME280;16405;53.964;13.448;2023-04-27T00:12:00;101262.50;;;1.05;85.54
29433;BME280;16405;53.964;13.448;2023-04-27T00:14:26;101263.38;;;1.05;85.54
29433;BME280;16405;53.964;13.448;2023-04-27T00:16:54;101259.06;;;1.04;85.96
29433;BME280;16405;53.964;13.448;2023-04-27T00:19:20;101262.50;;;1.03;85.91
29433;BME280;16405;53.964;13.448;2023-04-27T00:21:47;101264.22;;;1.02;85.89
29433;BME280;16405;53.964;13.448;2023-04-27T00:24:13;101268.56;;;1.00;85.89
29433;BME280;16405;53.964;13.448;2023-04-27T00:26:38;101263.38;;;0.97;85.79
29433;BME280;16405;53.964;13.448;2023-04-27T00:29:04;101270.28;;;0.94;85.78
29433;BME280;16405;53.964;13.448;2023-04-27T00:31:33;101271.97;;;0.90;85.77
29433;BME280;16405;53.964;13.448;2023-04-27T00:33:59;101272.00;;;0.87;85.81
29433;BME280;16405;53.964;13.448;2023-04-27T00:36:25;101260.72;;;0.82;85.74
29433;BME280;16405;53.964;13.448;2023-04-27T00:38:51;101268.50;;;0.79;86.14
29433;BME280;16405;53.964;13.448;2023-04-27T00:41:17;101278.00;;;0.77;85.65
29433;BME280;16405;53.964;13.448;2023-04-27T00:43:45;101273.69;;;0.74;86.22
29433;BME280;16405;53.964;13.448;2023-04-27T00:46:16;101272.81;;;0.74;85.86
29433;BME280;16405;53.964;13.448;2023-04-27T00:48:42;101279.72;;;0.72;86.26
29433;BME280;16405;53.964;13.448;2023-04-27T00:51:09;101271.94;;;0.69;86.49
29433;BME280;16405;53.964;13.448;2023-04-27T00:53:36;101280.56;;;0.68;86.15
29433;BME280;16405;53.964;13.448;2023-04-27T00:56:06;101277.13;;;0.66;86.21
29433;BME280;16405;53.964;13.448;2023-04-27T00:58:32;101285.72;;;0.65;86.72
29433;BME280;16405;53.964;13.448;2023-04-27T01:00:59;101284.88;;;0.63;86.54
29433;BME280;16405;53.964;13.448;2023-04-27T01:03:25;101286.59;;;0.62;86.58
29433;BME280;16405;53.964;13.448;2023-04-27T01:05:51;101288.31;;;0.60;86.55
29433;BME280;16405;53.964;13.448;2023-04-27T01:08:17;101288.34;;;0.58;86.68
29433;BME280;16405;53.964;13.448;2023-04-27T01:10:43;101290.03;;;0.58;86.66
29433;BME280;16405;53.964;13.448;2023-04-27T01:13:09;101294.34;;;0.56;86.95
29433;BME280;16405;53.964;13.448;2023-04-27T01:15:35;101290.91;;;0.55;86.92
29433;BME280;16405;53.964;13.448;2023-04-27T01:18:02;101289.19;;;0.54;87.05
29433;BME280;16405;53.964;13.448;2023-04-27T01:20:29;101293.50;;;0.52;87.16
29433;BME280;16405;53.964;13.448;2023-04-27T01:22:58;101290.00;;;0.52;87.42
29433;BME280;16405;53.964;13.448;2023-04-27T01:25:24;101293.47;;;0.48;87.62
29433;BME280;16405;53.964;13.448;2023-04-27T01:27:50;101283.94;;;0.45;87.25
29433;BME280;16405;53.964;13.448;2023-04-27T01:30:16;101285.66;;;0.43;87.36
29433;BME280;16405;53.964;13.448;2023-04-27T01:32:42;101291.69;;;0.40;87.67
29433;BME280;16405;53.964;13.448;2023-04-27T01:35:08;101291.72;;;0.39;88.04
29433;BME280;16405;53.964;13.448;2023-04-27T01:37:35;101289.09;;;0.36;87.48
29433;BME280;16405;53.964;13.448;2023-04-27T01:40:00;101294.25;;;0.34;87.76
29433;BME280;16405;53.964;13.448;2023-04-27T01:42:29;101291.66;;;0.31;87.85
29433;BME280;16405;53.964;13.448;2023-04-27T01:44:54;101296.84;;;0.30;87.92
29433;BME280;16405;53.964;13.448;2023-04-27T01:47:20;101295.09;;;0.27;88.02
29433;BME280;16405;53.964;13.448;2023-04-27T01:49:46;101295.97;;;0.26;88.52
29433;BME280;16405;53.964;13.448;2023-04-27T01:52:12;101299.38;;;0.24;88.72
29433;BME280;16405;53.964;13.448;2023-04-27T01:54:37;101303.69;;;0.22;88.15
29433;BME280;16405;53.964;13.448;2023-04-27T01:57:03;101302.84;;;0.19;88.48
29433;BME280;16405;53.964;13.448;2023-04-27T01:59:29;101307.16;;;0.17;88.93
29433;BME280;16405;53.964;13.448;2023-04-27T02:01:55;101308.88;;;0.15;88.98
29433;BME280;16405;53.964;13.448;2023-04-27T02:04:21;101306.28;;;0.15;88.90
29433;BME280;16405;53.964;13.448;2023-04-27T02:06:46;101298.47;;;0.11;89.14
29433;BME280;16405;53.964;13.448;2023-04-27T02:09:13;101304.50;;;0.08;89.53
29433;BME280;16405;53.964;13.448;2023-04-27T02:11:39;101306.19;;;0.06;89.45
29433;BME280;16405;53.964;13.448;2023-04-27T02:14:04;101307.94;;;0.06;89.47
29433;BME280;16405;53.964;13.448;2023-04-27T02:16:30;101302.72;;;0.04;89.58
29433;BME280;16405;53.964;13.448;2023-04-27T02:18:56;101301.84;;;0.02;89.99
29433;BME280;16405;53.964;13.448;2023-04-27T02:21:23;101309.63;;;-0.01;90.00
29433;BME280;16405;53.964;13.448;2023-04-27T02:23:49;101310.50;;;-0.02;90.23
29433;BME280;16405;53.964;13.448;2023-04-27T02:26:19;101309.63;;;-0.04;90.32
29433;BME280;16405;53.964;13.448;2023-04-27T02:28:47;101315.63;;;-0.05;90.24
29433;BME280;16405;53.964;13.448;2023-04-27T02:31:13;101315.63;;;-0.05;90.41
29433;BME280;16405;53.964;13.448;2023-04-27T02:33:41;101319.09;;;-0.06;90.52
29433;BME280;16405;53.964;13.448;2023-04-27T02:36:08;101319.94;;;-0.07;90.96
29433;BME280;16405;53.964;13.448;2023-04-27T02:38:34;101330.28;;;-0.09;91.13
29433;BME280;16405;53.964;13.448;2023-04-27T02:40:59;101325.97;;;-0.10;91.34
29433;BME280;16405;53.964;13.448;2023-04-27T02:43:25;101321.63;;;-0.09;91.05
29433;BME280;16405;53.964;13.448;2023-04-27T02:46:02;101324.25;;;-0.08;91.69
29433;BME280;16405;53.964;13.448;2023-04-27T02:48:29;101323.41;;;-0.08;91.41
29433;BME280;16405;53.964;13.448;2023-04-27T02:50:55;101333.75;;;-0.08;91.15
29433;BME280;16405;53.964;13.448;2023-04-27T02:53:24;101332.00;;;-0.09;92.00
29433;BME280;16405;53.964;13.448;2023-04-27T02:55:49;101331.13;;;-0.10;92.46
29433;BME280;16405;53.964;13.448;2023-04-27T02:58:16;101330.25;;;-0.12;92.20
29433;BME280;16405;53.964;13.448;2023-04-27T03:00:42;101330.28;;;-0.10;92.11
29433;BME280;16405;53.964;13.448;2023-04-27T03:03:09;101330.25;;;-0.12;92.13
29433;BME280;16405;53.964;13.448;2023-04-27T03:05:35;101332.88;;;-0.10;92.31
29433;BME280;16405;53.964;13.448;2023-04-27T03:08:04;101327.66;;;-0.12;92.74
29433;BME280;16405;53.964;13.448;2023-04-27T03:10:29;101330.28;;;-0.10;92.62
29433;BME280;16405;53.964;13.448;2023-04-27T03:12:55;101331.13;;;-0.11;93.28
29433;BME280;16405;53.964;13.448;2023-04-27T03:15:21;101335.47;;;-0.10;93.22
29433;BME280;16405;53.964;13.448;2023-04-27T03:17:47;101332.84;;;-0.09;92.86
29433;BME280;16405;53.964;13.448;2023-04-27T03:20:13;101342.38;;;-0.08;93.58
29433;BME280;16405;53.964;13.448;2023-04-27T03:22:41;101344.94;;;-0.11;93.17
29433;BME280;16405;53.964;13.448;2023-04-27T03:25:10;101343.19;;;-0.12;93.22
29433;BME280;16405;53.964;13.448;2023-04-27T03:27:36;101345.78;;;-0.12;92.95
29433;BME280;16405;53.964;13.448;2023-04-27T03:30:03;101353.56;;;-0.12;93.09
29433;BME280;16405;53.964;13.448;2023-04-27T03:32:29;101361.31;;;-0.13;93.47
29433;BME280;16405;53.964;13.448;2023-04-27T03:34:58;101350.09;;;-0.14;92.87
29433;BME280;16405;53.964;13.448;2023-04-27T03:37:23;101358.72;;;-0.15;93.26
29433;BME280;16405;53.964;13.448;2023-04-27T03:39:49;101356.13;;;-0.13;93.66
29433;BME280;16405;53.964;13.448;2023-04-27T03:42:15;101356.16;;;-0.12;93.23
29433;BME280;16405;53.964;13.448;2023-04-27T03:44:41;101368.25;;;-0.09;93.51
29433;BME280;16405;53.964;13.448;2023-04-27T03:47:07;101365.66;;;-0.08;93.28
29433;BME280;16405;53.964;13.448;2023-04-27T03:49:35;101366.56;;;-0.04;94.09
29433;BME280;16405;53.964;13.448;2023-04-27T03:52:03;101368.34;;;0.00;93.69
29433;BME280;16405;53.964;13.448;2023-04-27T03:54:31;101357.13;;;0.03;93.79
29433;BME280;16405;53.964;13.448;2023-04-27T03:56:57;101363.16;;;0.06;93.96
29433;BME280;16405;53.964;13.448;2023-04-27T03:59:23;101372.69;;;0.10;93.65
29433;BME280;16405;53.964;13.448;2023-04-27T04:01:49;101370.16;;;0.16;93.79
29433;BME280;16405;53.964;13.448;2023-04-27T04:04:15;101375.38;;;0.23;93.67
29433;BME280;16405;53.964;13.448;2023-04-27T04:06:41;101374.56;;;0.31;93.55
29433;BME280;16405;53.964;13.448;2023-04-27T04:09:06;101386.69;;;0.40;93.27
29433;BME280;16405;53.964;13.448;2023-04-27T04:11:32;101397.97;;;0.48;92.98
29433;BME280;16405;53.964;13.448;2023-04-27T04:13:58;101404.91;;;0.54;92.75
29433;BME280;16405;53.964;13.448;2023-04-27T04:16:24;101406.59;;;0.47;92.61
29433;BME280;16405;53.964;13.448;2023-04-27T04:18:50;101406.59;;;0.44;93.08
29433;BME280;16405;53.964;13.448;2023-04-27T04:21:16;101412.63;;;0.40;93.89
29433;BME280;16405;53.964;13.448;2023-04-27T04:23:42;101413.47;;;0.37;93.74
29433;BME280;16405;53.964;13.448;2023-04-27T04:26:08;101417.75;;;0.31;94.86
29433;BME280;16405;53.964;13.448;2023-04-27T04:28:34;101418.63;;;0.33;95.08
29433;BME280;16405;53.964;13.448;2023-04-27T04:31:00;101420.44;;;0.46;95.26
29433;BME280;16405;53.964;13.448;2023-04-27T04:33:27;101423.09;;;0.58;95.17
29433;BME280;16405;53.964;13.448;2023-04-27T04:35:53;101425.72;;;0.68;93.91
29433;BME280;16405;53.964;13.448;2023-04-27T04:38:19;101428.38;;;0.78;93.73
29433;BME280;16405;53.964;13.448;2023-04-27T04:40:46;101421.53;;;0.96;93.26
29433;BME280;16405;53.964;13.448;2023-04-27T04:43:12;101432.84;;;1.10;92.46
29433;BME280;16405;53.964;13.448;2023-04-27T04:45:37;101442.28;;;3.16;91.34
29433;BME280;16405;53.964;13.448;2023-04-27T04:48:03;101454.03;;;6.58;84.61
29433;BME280;16405;53.964;13.448;2023-04-27T04:50:29;101459.56;;;9.10;75.88
29433;BME280;16405;53.964;13.448;2023-04-27T04:52:55;101456.91;;;11.46;66.47
29433;BME280;16405;53.964;13.448;2023-04-27T04:55:21;101472.81;;;13.53;59.30
29433;BME280;16405;53.964;13.448;2023-04-27T04:57:47;101483.66;;;15.40;53.71
29433;BME280;16405;53.964;13.448;2023-04-27T05:00:13;101492.41;;;17.11;49.69
29433;BME280;16405;53.964;13.448;2023-04-27T05:02:40;101507.25;;;18.52;45.89
29433;BME280;16405;53.964;13.448;2023-04-27T05:05:09;101516.94;;;19.68;43.64
29433;BME280;16405;53.964;13.448;2023-04-27T05:07:36;101535.19;;;20.71;41.53
29433;BME280;16405;53.964;13.448;2023-04-27T05:10:02;101549.56;;;21.17;40.49
29433;BME280;16405;53.964;13.448;2023-04-27T05:12:28;101554.81;;;20.72;39.40
29433;BME280;16405;53.964;13.448;2023-04-27T05:14:54;101579.59;;;22.54;38.02
29433;BME280;16405;53.964;13.448;2023-04-27T05:17:22;101591.47;;;23.36;36.45
29433;BME280;16405;53.964;13.448;2023-04-27T05:19:48;101597.44;;;24.20;35.26
29433;BME280;16405;53.964;13.448;2023-04-27T05:22:14;101611.91;;;24.87;34.39
29433;BME280;16405;53.964;13.448;2023-04-27T05:24:39;101615.41;;;25.36;33.38
29433;BME280;16405;53.964;13.448;2023-04-27T05:27:05;101629.78;;;25.55;32.97
29433;BME280;16405;53.964;13.448;2023-04-27T05:29:31;101628.06;;;26.01;32.24
29433;BME280;16405;53.964;13.448;2023-04-27T05:31:57;101637.81;;;26.57;31.39
29433;BME280;16405;53.964;13.448;2023-04-27T05:34:23;101649.13;;;26.97;30.88
29433;BME280;16405;53.964;13.448;2023-04-27T05:36:49;101647.69;;;26.21;31.18
29433;BME280;16405;53.964;13.448;2023-04-27T05:39:17;101664.13;;;27.35;30.38
29433;BME280;16405;53.964;13.448;2023-04-27T05:41:42;101671.88;;;27.56;30.07
29433;BME280;16405;53.964;13.448;2023-04-27T05:44:08;101675.97;;;27.87;29.53
29433;BME280;16405;53.964;13.448;2023-04-27T05:46:34;101684.13;;;28.03;29.56
29433;BME280;16405;53.964;13.448;2023-04-27T05:49:00;101638.22;;;23.54;32.52
29433;BME280;16405;53.964;13.448;2023-04-27T05:51:26;101673.16;;;25.34;32.14
29433;BME280;16405;53.964;13.448;2023-04-27T05:53:53;101674.91;;;26.10;30.89
29433;BME280;16405;53.964;13.448;2023-04-27T05:56:20;101693.03;;;27.35;30.28
29433;BME280;16405;53.964;13.448;2023-04-27T05:58:46;101707.59;;;28.29;29.26
29433;BME280;16405;53.964;13.448;2023-04-27T06:01:12;101720.66;;;29.17;28.04
29433;BME280;16405;53.964;13.448;2023-04-27T06:03:38;101725.53;;;29.62;27.77
29433;BME280;16405;53.964;13.448;2023-04-27T06:06:04;101735.44;;;30.03;27.42
29433;BME280;16405;53.964;13.448;2023-04-27T06:08:30;101749.63;;;30.21;27.22
29433;BME280;16405;53.964;13.448;2023-04-27T06:10:56;101749.16;;;30.18;27.03
29433;BME280;16405;53.964;13.448;2023-04-27T06:13:24;101750.66;;;30.29;26.87
29433;BME280;16405;53.964;13.448;2023-04-27T06:15:50;101756.09;;;30.29;26.69
29433;BME280;16405;53.964;13.448;2023-04-27T06:18:15;101757.06;;;30.27;26.96
29433;BME280;16405;53.964;13.448;2023-04-27T06:20:41;101756.44;;;29.20;27.26
29433;BME280;16405;53.964;13.448;2023-04-27T06:23:07;101731.94;;;27.42;29.49
29433;BME280;16405;53.964;13.448;2023-04-27T06:25:33;101750.59;;;28.32;28.29
29433;BME280;16405;53.964;13.448;2023-04-27T06:28:00;101748.59;;;28.42;28.11
29433;BME280;16405;53.964;13.448;2023-04-27T06:30:26;101740.00;;;26.98;29.54
29433;BME280;16405;53.964;13.448;2023-04-27T06:32:54;101751.91;;;27.05;29.69
29433;BME280;16405;53.964;13.448;2023-04-27T06:35:20;101758.84;;;27.26;29.77
29433;BME280;16405;53.964;13.448;2023-04-27T06:37:46;101758.44;;;27.38;29.00
29433;BME280;16405;53.964;13.448;2023-04-27T06:40:12;101763.81;;;28.00;29.05
29433;BME280;16405;53.964;13.448;2023-04-27T06:42:38;101773.34;;;28.47;28.20
29433;BME280;16405;53.964;13.448;2023-04-27T06:45:05;101766.72;;;27.81;28.98
29433;BME280;16405;53.964;13.448;2023-04-27T06:47:32;101775.16;;;28.73;28.22
29433;BME280;16405;53.964;13.448;2023-04-27T06:49:58;101776.00;;;28.81;27.90
29433;BME280;16405;53.964;13.448;2023-04-27T06:52:23;101763.63;;;26.50;29.65
29433;BME280;16405;53.964;13.448;2023-04-27T06:54:49;101744.91;;;25.15;31.12
29433;BME280;16405;53.964;13.448;2023-04-27T06:57:15;101755.22;;;25.88;30.68
29433;BME280;16405;53.964;13.448;2023-04-27T06:59:41;101759.53;;;25.62;30.93
29433;BME280;16405;53.964;13.448;2023-04-27T07:02:07;101755.94;;;25.90;30.85
29433;BME280;16405;53.964;13.448;2023-04-27T07:04:33;101760.25;;;26.38;30.01
29433;BME280;16405;53.964;13.448;2023-04-27T07:07:01;101771.56;;;26.52;30.16
29433;BME280;16405;53.964;13.448;2023-04-27T07:09:26;101772.72;;;26.59;29.52
29433;BME280;16405;53.964;13.448;2023-04-27T07:11:54;101770.50;;;27.08;29.12
29433;BME280;16405;53.964;13.448;2023-04-27T07:14:19;101746.72;;;24.66;31.65
29433;BME280;16405;53.964;13.448;2023-04-27T07:16:45;101735.44;;;22.73;33.26
29433;BME280;16405;53.964;13.448;2023-04-27T07:19:11;101713.91;;;20.55;35.64
29433;BME280;16405;53.964;13.448;2023-04-27T07:21:37;101694.53;;;18.43;38.26
29433;BME280;16405;53.964;13.448;2023-04-27T07:24:03;101684.06;;;17.68;40.22
29433;BME280;16405;53.964;13.448;2023-04-27T07:26:29;101686.63;;;18.27;39.50
29433;BME280;16405;53.964;13.448;2023-04-27T07:28:57;101672.59;;;17.23;41.59
29433;BME280;16405;53.964;13.448;2023-04-27T07:31:23;101670.13;;;16.90;41.81
29433;BME280;16405;53.964;13.448;2023-04-27T07:33:48;101650.09;;;15.54;43.01
29433;BME280;16405;53.964;13.448;2023-04-27T07:36:14;101644.06;;;14.82;44.65
29433;BME280;16405;53.964;13.448;2023-04-27T07:38:42;101657.81;;;17.03;42.40
29433;BME280;16405;53.964;13.448;2023-04-27T07:41:08;101686.91;;;19.05;39.86
29433;BME280;16405;53.964;13.448;2023-04-27T07:43:34;101691.25;;;19.59;39.08
29433;BME280;16405;53.964;13.448;2023-04-27T07:46:00;101687.34;;;18.58;39.28
29433;BME280;16405;53.964;13.448;2023-04-27T07:48:26;101676.72;;;17.57;40.51
29433;BME280;16405;53.964;13.448;2023-04-27T07:50:54;101670.31;;;16.39;41.04
29433;BME280;16405;53.964;13.448;2023-04-27T07:53:23;101644.69;;;15.22;43.32
29433;BME280;16405;53.964;13.448;2023-04-27T07:55:49;101637.25;;;14.02;44.94
29433;BME280;16405;53.964;13.448;2023-04-27T07:58:15;101614.47;;;13.19;46.81
29433;BME280;16405;53.964;13.448;2023-04-27T08:00:41;101606.56;;;12.34;47.60
29433;BME280;16405;53.964;13.448;2023-04-27T08:03:07;101600.66;;;11.33;50.19
29433;BME280;16405;53.964;13.448;2023-04-27T08:05:33;101607.47;;;11.40;51.15
29433;BME280;16405;53.964;13.448;2023-04-27T08:07:59;101599.63;;;11.12;50.80
29433;BME280;16405;53.964;13.448;2023-04-27T08:10:25;101613.56;;;13.00;49.82
29433;BME280;16405;53.964;13.448;2023-04-27T08:12:51;101620.16;;;13.71;46.76
29433;BME280;16405;53.964;13.448;2023-04-27T08:15:17;101624.56;;;13.31;47.09
29433;BME280;16405;53.964;13.448;2023-04-27T08:17:42;101632.22;;;14.34;46.12
29433;BME280;16405;53.964;13.448;2023-04-27T08:20:09;101639.03;;;15.46;45.00
29433;BME280;16405;53.964;13.448;2023-04-27T08:22:39;101637.47;;;15.92;43.53
29433;BME280;16405;53.964;13.448;2023-04-27T08:25:07;101647.44;;;16.52;42.93
29433;BME280;16405;53.964;13.448;2023-04-27T08:27:37;101659.00;;;17.28;41.80
29433;BME280;16405;53.964;13.448;2023-04-27T08:30:03;101659.56;;;16.72;41.94
29433;BME280;16405;53.964;13.448;2023-04-27T08:32:29;101647.13;;;15.77;42.22
29433;BME280;16405;53.964;13.448;2023-04-27T08:34:55;101643.75;;;15.06;42.73
29433;BME280;16405;53.964;13.448;2023-04-27T08:37:21;101629.56;;;14.34;45.05
29433;BME280;16405;53.964;13.448;2023-04-27T08:39:49;101625.25;;;14.69;44.99
29433;BME280;16405;53.964;13.448;2023-04-27T08:42:15;101632.81;;;15.47;44.15
29433;BME280;16405;53.964;13.448;2023-04-27T08:44:42;101633.63;;;16.14;43.49
29433;BME280;16405;53.964;13.448;2023-04-27T08:47:09;101634.47;;;16.30;43.37
29433;BME280;16405;53.964;13.448;2023-04-27T08:49:36;101630.59;;;15.88;43.33
29433;BME280;16405;53.964;13.448;2023-04-27T08:52:13;101634.00;;;15.06;44.33
29433;BME280;16405;53.964;13.448;2023-04-27T08:54:42;101612.03;;;13.56;45.32
29433;BME280;16405;53.964;13.448;2023-04-27T08:57:14;101608.53;;;13.55;46.96
29433;BME280;16405;53.964;13.448;2023-04-27T08:59:41;101606.91;;;14.09;46.81
29433;BME280;16405;53.964;13.448;2023-04-27T09:02:22;101600.19;;;14.57;45.03
29433;BME280;16405;53.964;13.448;2023-04-27T09:04:48;101608.75;;;14.26;44.87
29433;BME280;16405;53.964;13.448;2023-04-27T09:07:17;101619.22;;;13.91;46.11
29433;BME280;16405;53.964;13.448;2023-04-27T09:09:44;101610.84;;;13.82;46.59
29433;BME280;16405;53.964;13.448;2023-04-27T09:12:21;101605.19;;;13.70;47.33
29433;BME280;16405;53.964;13.448;2023-04-27T09:15:00;101596.81;;;13.61;47.65
29433;BME280;16405;53.964;13.448;2023-04-27T09:17:30;101602.00;;;13.43;47.91
29433;BME280;16405;53.964;13.448;2023-04-27T09:25:25;101586.84;;;13.47;47.26
29433;BME280;16405;53.964;13.448;2023-04-27T09:27:54;101588.44;;;13.51;47.13
29433;BME280;16405;53.964;13.448;2023-04-27T09:30:27;101584.47;;;13.00;46.32
29433;BME280;16405;53.964;13.448;2023-04-27T09:32:59;101579.41;;;12.52;48.26
29433;BME280;16405;53.964;13.448;2023-04-27T09:35:32;101571.91;;;12.64;47.32
29433;BME280;16405;53.964;13.448;2023-04-27T09:38:01;101579.88;;;13.05;48.95
29433;BME280;16405;53.964;13.448;2023-04-27T09:40:28;101573.31;;;13.13;47.56
29433;BME280;16405;53.964;13.448;2023-04-27T09:42:59;101567.75;;;13.40;48.06
29433;BME280;16405;53.964;13.448;2023-04-27T09:45:26;101579.44;;;13.55;47.45
29433;BME280;16405;53.964;13.448;2023-04-27T09:47:53;101582.31;;;13.69;46.30
29433;BME280;16405;53.964;13.448;2023-04-27T09:50:22;101570.63;;;13.92;46.14
29433;BME280;16405;53.964;13.448;2023-04-27T09:52:51;101580.47;;;14.27;45.80
29433;BME280;16405;53.964;13.448;2023-04-27T09:55:35;101570.34;;;14.18;46.76
29433;BME280;16405;53.964;13.448;2023-04-27T10:01:28;101576.09;;;12.47;45.88
29433;BME280;16405;53.964;13.448;2023-04-27T10:04:04;101560.19;;;12.05;47.74
29433;BME280;16405;53.964;13.448;2023-04-27T10:07:08;101553.56;;;12.39;49.80
29433;BME280;16405;53.964;13.448;2023-04-27T10:09:49;101553.41;;;12.84;50.13
29433;BME280;16405;53.964;13.448;2023-04-27T10:12:22;101559.75;;;13.42;47.75
29433;BME280;16405;53.964;13.448;2023-04-27T10:14:59;101562.47;;;13.97;47.29
29433;BME280;16405;53.964;13.448;2023-04-27T10:17:31;101575.63;;;14.18;46.26
29433;BME280;16405;53.964;13.448;2023-04-27T10:20:06;101574.38;;;13.69;46.01
29433;BME280;16405;53.964;13.448;2023-04-27T10:25:39;101549.19;;;11.46;46.61
29433;BME280;16405;53.964;13.448;2023-04-27T10:28:06;101546.38;;;11.51;48.05
29433;BME280;16405;53.964;13.448;2023-04-27T10:30:37;101550.31;;;12.10;48.60
29433;BME280;16405;53.964;13.448;2023-04-27T10:33:09;101560.56;;;12.40;47.66
29433;BME280;16405;53.964;13.448;2023-04-27T10:35:42;101564.09;;;12.18;46.87
29433;BME280;16405;53.964;13.448;2023-04-27T10:38:15;101560.56;;;12.18;47.57
29433;BME280;16405;53.964;13.448;2023-04-27T10:40:59;101549.94;;;11.97;47.67
29433;BME280;16405;53.964;13.448;2023-04-27T10:43:30;101549.38;;;12.11;48.05
29433;BME280;16405;53.964;13.448;2023-04-27T10:46:14;101551.47;;;12.03;47.81
29433;BME280;16405;53.964;13.448;2023-04-27T10:48:44;101549.25;;;11.92;49.09
29433;BME280;16405;53.964;13.448;2023-04-27T10:51:14;101552.91;;;12.34;50.05
29433;BME280;16405;53.964;13.448;2023-04-27T10:53:40;101541.34;;;12.36;47.32
29433;BME280;16405;53.964;13.448;2023-04-27T10:56:06;101558.59;;;12.45;47.56
29433;BME280;16405;53.964;13.448;2023-04-27T10:58:33;101556.16;;;12.40;48.06
29433;BME280;16405;53.964;13.448;2023-04-27T11:01:00;101557.03;;;12.19;47.27
29433;BME280;16405;53.964;13.448;2023-04-27T11:03:28;101564.22;;;11.68;46.30
29433;BME280;16405;53.964;13.448;2023-04-27T11:06:04;101550.75;;;11.28;46.95
29433;BME280;16405;53.964;13.448;2023-04-27T11:08:31;101546.16;;;10.85;47.54
29433;BME280;16405;53.964;13.448;2023-04-27T11:11:01;101541.72;;;10.85;48.31
29433;BME280;16405;53.964;13.448;2023-04-27T11:13:27;101546.47;;;11.49;49.73
29433;BME280;16405;53.964;13.448;2023-04-27T11:15:55;101545.41;;;12.23;50.13
29433;BME280;16405;53.964;13.448;2023-04-27T11:18:35;101556.16;;;12.61;48.82
29433;BME280;16405;53.964;13.448;2023-04-27T11:21:14;101559.03;;;12.34;46.16
29433;BME280;16405;53.964;13.448;2023-04-27T11:23:44;101565.72;;;11.52;45.96
29433;BME280;16405;53.964;13.448;2023-04-27T11:26:20;101548.91;;;11.31;46.63
29433;BME280;16405;53.964;13.448;2023-04-27T11:29:07;101563.59;;;11.61;45.88
29433;BME280;16405;53.964;13.448;2023-04-27T11:31:46;101551.09;;;11.43;46.02
29433;BME280;16405;53.964;13.448;2023-04-27T11:34:23;101558.28;;;11.14;46.53
29433;BME280;16405;53.964;13.448;2023-04-27T11:37:03;101554.47;;;10.73;46.74
29433;BME280;16405;53.964;13.448;2023-04-27T11:39:36;101545.28;;;10.84;47.11
29433;BME280;16405;53.964;13.448;2023-04-27T11:42:24;101560.59;;;11.23;47.93
29433;BME280;16405;53.964;13.448;2023-04-27T11:45:16;101559.19;;;11.38;47.62
29433;BME280;16405;53.964;13.448;2023-04-27T11:47:45;101558.78;;;11.96;48.70
29433;BME280;16405;53.964;13.448;2023-04-27T11:50:13;101567.50;;;12.42;47.63
29433;BME280;16405;53.964;13.448;2023-04-27T11:52:40;101561.50;;;11.95;45.46
29433;BME280;16405;53.964;13.448;2023-04-27T11:55:06;101567.81;;;11.42;46.11
29433;BME280;16405;53.964;13.448;2023-04-27T11:57:37;101568.94;;;10.59;47.15
29433;BME280;16405;53.964;13.448;2023-04-27T12:00:04;101563.38;;;10.14;48.92
29433;BME280;16405;53.964;13.448;2023-04-27T12:02:36;101557.41;;;10.37;49.11
29433;BME280;16405;53.964;13.448;2023-04-27T12:05:06;101556.69;;;10.85;48.88
29433;BME280;16405;53.964;13.448;2023-04-27T12:07:34;101562.47;;;11.20;48.09
29433;BME280;16405;53.964;13.448;2023-04-27T12:10:00;101565.81;;;11.72;47.27
29433;BME280;16405;53.964;13.448;2023-04-27T12:12:26;101568.72;;;12.11;48.91
29433;BME280;16405;53.964;13.448;2023-04-27T12:14:55;101568.00;;;11.61;45.84
29433;BME280;16405;53.964;13.448;2023-04-27T12:17:24;101577.88;;;11.32;46.60
29433;BME280;16405;53.964;13.448;2023-04-27T12:19:50;101572.59;;;11.07;46.91
29433;BME280;16405;53.964;13.448;2023-04-27T12:22:15;101581.34;;;10.56;47.34
29433;BME280;16405;53.964;13.448;2023-04-27T12:24:41;101576.84;;;10.59;46.91
29433;BME280;16405;53.964;13.448;2023-04-27T12:27:07;101572.19;;;10.67;46.63
29433;BME280;16405;53.964;13.448;2023-04-27T12:29:33;101567.09;;;10.63;46.12
29433;BME280;16405;53.964;13.448;2023-04-27T12:31:59;101572.50;;;10.58;46.86
29433;BME280;16405;53.964;13.448;2023-04-27T12:34:25;101560.16;;;10.85;49.17
29433;BME280;16405;53.964;13.448;2023-04-27T12:36:54;101562.69;;;11.14;48.64
29433;BME280;16405;53.964;13.448;2023-04-27T12:39:24;101569.88;;;11.10;48.01
29433;BME280;16405;53.964;13.448;2023-04-27T12:41:55;101559.00;;;10.69;46.95
29433;BME280;16405;53.964;13.448;2023-04-27T12:44:22;101565.63;;;11.06;47.91
29433;BME280;16405;53.964;13.448;2023-04-27T12:46:48;101570.47;;;11.65;47.96
29433;BME280;16405;53.964;13.448;2023-04-27T12:49:15;101577.13;;;11.76;46.46
29433;BME280;16405;53.964;13.448;2023-04-27T12:51:42;101577.91;;;11.31;45.92
29433;BME280;16405;53.964;13.448;2023-04-27T12:54:16;101574.72;;;11.21;46.81
29433;BME280;16405;53.964;13.448;2023-04-27T12:56:42;101575.88;;;11.62;48.26
29433;BME280;16405;53.964;13.448;2023-04-27T12:59:08;101583.44;;;11.72;47.16